sensor_id;sensor_type;location;lat;lon;timestamp;P1;durP1;ratioP1;P2;durP2;ratioP2
48076;SDS011;33854;57.708;12.008;2022-12-29T00:01:22;0.03;;;0.03;;
48076;SDS011;33854;57.708;12.008;2022-12-29T00:03:47;0.00;;;0.00;;
48076;SDS011;33854;57.708;12.008;2022-12-29T00:06:13;0.00;;;0.00;;
48076;SDS011;33854;57.708;12.008;2022-12-29T00:08:38;0.00;;;0.00;;
48076;SDS011;33854;57.708;12.008;2022-12-29T00:11:07;0.00;;;0.00;;
48076;SDS011;33854;57.708;12.008;2022-12-29T00:13:34;0.00;;;0.00;;
48076;SDS011;33854;57.708;12.008;2022-12-29T00:16:18;0.00;;;0.00;;
48076;SDS011;33854;57.708;12.008;2022-12-29T00:18:44;0.00;;;0.00;;
48076;SDS011;33854;57.708;12.008;2022-12-29T00:21:12;0.00;;;0.00;;
48076;SDS011;33854;57.708;12.008;2022-12-29T00:23:58;0.00;;;0.00;;
48076;SDS011;33854;57.708;12.008;2022-12-29T00:26:42;0.00;;;0.00;;
48076;SDS011;33854;57.708;12.008;2022-12-29T00:29:27;0.00;;;0.00;;
48076;SDS011;33854;57.708;12.008;2022-12-29T00:32:11;0.00;;;0.00;;
48076;SDS011;33854;57.708;12.008;2022-12-29T00:34:55;0.00;;;0.00;;
48076;SDS011;33854;57.708;12.008;2022-12-29T00:37:39;0.00;;;0.00;;
48076;SDS011;33854;57.708;12.008;2022-12-29T00:40:26;0.00;;;0.00;;
48076;SDS011;33854;57.708;12.008;2022-12-29T00:43:10;0.00;;;0.00;;
48076;SDS011;33854;57.708;12.008;2022-12-29T00:45:54;0.00;;;0.00;;
48076;SDS011;33854;57.708;12.008;2022-12-29T00:48:20;0.00;;;0.00;;
48076;SDS011;33854;57.708;12.008;2022-12-29T00:51:05;0.00;;;0.00;;
48076;SDS011;33854;57.708;12.008;2022-12-29T00:53:32;0.00;;;0.00;;
48076;SDS011;33854;57.708;12.008;2022-12-29T00:55:57;0.00;;;0.00;;
48076;SDS011;33854;57.708;12.008;2022-12-29T00:58:23;0.00;;;0.00;;
48076;SDS011;33854;57.708;12.008;2022-12-29T01:00:51;0.00;;;0.00;;
48076;SDS011;33854;57.708;12.008;2022-12-29T01:03:16;0.00;;;0.00;;
48076;SDS011;33854;57.708;12.008;2022-12-29T01:05:42;0.00;;;0.00;;
48076;SDS011;33854;57.708;12.008;2022-12-29T01:08:08;0.00;;;0.00;;
48076;SDS011;33854;57.708;12.008;2022-12-29T01:10:33;0.00;;;0.00;;
48076;SDS011;33854;57.708;12.008;2022-12-29T01:12:59;0.00;;;0.00;;
48076;SDS011;33854;57.708;12.008;2022-12-29T01:15:24;0.00;;;0.00;;
48076;SDS011;33854;57.708;12.008;2022-12-29T01:17:49;0.00;;;0.00;;
48076;SDS011;33854;57.708;12.008;2022-12-29T01:20:15;0.00;;;0.00;;
48076;SDS011;33854;57.708;12.008;2022-12-29T01:22:40;0.00;;;0.00;;
48076;SDS011;33854;57.708;12.008;2022-12-29T01:25:07;0.00;;;0.00;;
48076;SDS011;33854;57.708;12.008;2022-12-29T01:27:33;0.00;;;0.00;;
48076;SDS011;33854;57.708;12.008;2022-12-29T01:29:58;0.00;;;0.00;;
48076;SDS011;33854;57.708;12.008;2022-12-29T01:32:23;0.00;;;0.00;;
48076;SDS011;33854;57.708;12.008;2022-12-29T01:34:49;0.00;;;0.00;;
48076;SDS011;33854;57.708;12.008;2022-12-29T01:37:14;0.00;;;0.00;;
48076;SDS011;33854;57.708;12.008;2022-12-29T01:39:40;0.00;;;0.00;;
48076;SDS011;33854;57.708;12.008;2022-12-29T01:42:08;0.00;;;0.00;;
48076;SDS011;33854;57.708;12.008;2022-12-29T01:44:51;0.00;;;0.00;;
48076;SDS011;33854;57.708;12.008;2022-12-29T01:49:56;0.00;;;0.00;;
48076;SDS011;33854;57.708;12.008;2022-12-29T01:52:26;0.00;;;0.00;;
48076;SDS011;33854;57.708;12.008;2022-12-29T01:54:54;0.00;;;0.00;;
48076;SDS011;33854;57.708;12.008;2022-12-29T01:57:29;0.00;;;0.00;;
48076;SDS011;33854;57.708;12.008;2022-12-29T02:00:00;0.00;;;0.00;;
48076;SDS011;33854;57.708;12.008;2022-12-29T02:02:29;0.00;;;0.00;;
48076;SDS011;33854;57.708;12.008;2022-12-29T02:04:56;0.00;;;0.00;;
48076;SDS011;33854;57.708;12.008;2022-12-29T02:07:24;0.00;;;0.00;;
48076;SDS011;33854;57.708;12.008;2022-12-29T02:09:52;0.00;;;0.00;;
48076;SDS011;33854;57.708;12.008;2022-12-29T02:12:20;0.00;;;0.00;;
48076;SDS011;33854;57.708;12.008;2022-12-29T02:14:49;0.00;;;0.00;;
48076;SDS011;33854;57.708;12.008;2022-12-29T02:28:36;0.00;;;0.00;;
48076;SDS011;33854;57.708;12.008;2022-12-29T02:34:10;0.00;;;0.00;;
48076;SDS011;33854;57.708;12.008;2022-12-29T02:42:33;0.00;;;0.00;;
48076;SDS011;33854;57.708;12.008;2022-12-29T02:47:45;0.00;;;0.00;;
48076;SDS011;33854;57.708;12.008;2022-12-29T02:50:36;0.00;;;0.00;;
48076;SDS011;33854;57.708;12.008;2022-12-29T02:53:06;0.15;;;0.15;;
48076;SDS011;33854;57.708;12.008;2022-12-29T02:55:35;0.00;;;0.00;;
48076;SDS011;33854;57.708;12.008;2022-12-29T02:58:09;0.20;;;0.20;;
48076;SDS011;33854;57.708;12.008;2022-12-29T03:00:38;0.00;;;0.00;;
48076;SDS011;33854;57.708;12.008;2022-12-29T03:06:08;0.00;;;0.00;;
48076;SDS011;33854;57.708;12.008;2022-12-29T03:11:09;0.00;;;0.00;;
48076;SDS011;33854;57.708;12.008;2022-12-29T03:13:57;3.08;;;1.55;;
48076;SDS011;33854;57.708;12.008;2022-12-29T03:19:49;0.00;;;0.00;;
48076;SDS011;33854;57.708;12.008;2022-12-29T03:22:23;0.00;;;0.00;;
48076;SDS011;33854;57.708;12.008;2022-12-29T03:24:58;0.00;;;0.00;;
48076;SDS011;33854;57.708;12.008;2022-12-29T03:27:29;0.00;;;0.00;;
48076;SDS011;33854;57.708;12.008;2022-12-29T03:29:59;0.10;;;0.10;;
48076;SDS011;33854;57.708;12.008;2022-12-29T03:33:01;0.00;;;0.00;;
48076;SDS011;33854;57.708;12.008;2022-12-29T03:35:22;0.00;;;0.00;;
48076;SDS011;33854;57.708;12.008;2022-12-29T03:38:13;0.00;;;0.00;;
48076;SDS011;33854;57.708;12.008;2022-12-29T03:40:41;0.00;;;0.00;;
48076;SDS011;33854;57.708;12.008;2022-12-29T03:43:09;0.00;;;0.00;;
48076;SDS011;33854;57.708;12.008;2022-12-29T03:45:36;0.00;;;0.00;;
48076;SDS011;33854;57.708;12.008;2022-12-29T03:48:02;0.00;;;0.00;;
48076;SDS011;33854;57.708;12.008;2022-12-29T03:50:28;0.00;;;0.00;;
48076;SDS011;33854;57.708;12.008;2022-12-29T03:52:53;0.00;;;0.00;;
48076;SDS011;33854;57.708;12.008;2022-12-29T03:55:19;0.00;;;0.00;;
48076;SDS011;33854;57.708;12.008;2022-12-29T03:57:44;0.00;;;0.00;;
48076;SDS011;33854;57.708;12.008;2022-12-29T04:00:10;0.00;;;0.00;;
48076;SDS011;33854;57.708;12.008;2022-12-29T04:02:36;0.00;;;0.00;;
48076;SDS011;33854;57.708;12.008;2022-12-29T04:05:01;0.00;;;0.00;;
48076;SDS011;33854;57.708;12.008;2022-12-29T04:07:27;0.00;;;0.00;;
48076;SDS011;33854;57.708;12.008;2022-12-29T04:09:53;0.00;;;0.00;;
48076;SDS011;33854;57.708;12.008;2022-12-29T04:12:18;0.00;;;0.00;;
48076;SDS011;33854;57.708;12.008;2022-12-29T04:14:43;0.00;;;0.00;;
48076;SDS011;33854;57.708;12.008;2022-12-29T04:17:09;0.00;;;0.00;;
48076;SDS011;33854;57.708;12.008;2022-12-29T04:19:34;0.00;;;0.00;;
48076;SDS011;33854;57.708;12.008;2022-12-29T04:22:00;0.00;;;0.00;;
48076;SDS011;33854;57.708;12.008;2022-12-29T04:24:25;0.00;;;0.00;;
48076;SDS011;33854;57.708;12.008;2022-12-29T04:26:51;0.00;;;0.00;;
48076;SDS011;33854;57.708;12.008;2022-12-29T04:29:16;0.00;;;0.00;;
48076;SDS011;33854;57.708;12.008;2022-12-29T04:31:42;0.00;;;0.00;;
48076;SDS011;33854;57.708;12.008;2022-12-29T04:34:07;0.00;;;0.00;;
48076;SDS011;33854;57.708;12.008;2022-12-29T04:36:32;0.00;;;0.00;;
48076;SDS011;33854;57.708;12.008;2022-12-29T04:38:58;0.00;;;0.00;;
48076;SDS011;33854;57.708;12.008;2022-12-29T04:41:24;0.00;;;0.00;;
48076;SDS011;33854;57.708;12.008;2022-12-29T04:43:49;0.00;;;0.00;;
48076;SDS011;33854;57.708;12.008;2022-12-29T04:46:15;0.00;;;0.00;;
48076;SDS011;33854;57.708;12.008;2022-12-29T04:48:40;3.70;;;0.50;;
48076;SDS011;33854;57.708;12.008;2022-12-29T04:51:06;3.37;;;0.63;;
48076;SDS011;33854;57.708;12.008;2022-12-29T04:53:31;2.13;;;0.80;;
48076;SDS011;33854;57.708;12.008;2022-12-29T04:55:57;4.40;;;0.53;;
48076;SDS011;33854;57.708;12.008;2022-12-29T04:58:22;1.30;;;0.77;;
48076;SDS011;33854;57.708;12.008;2022-12-29T05:00:48;2.43;;;1.27;;
48076;SDS011;33854;57.708;12.008;2022-12-29T05:03:13;3.33;;;1.17;;
48076;SDS011;33854;57.708;12.008;2022-12-29T05:05:38;3.80;;;1.40;;
48076;SDS011;33854;57.708;12.008;2022-12-29T05:08:04;2.73;;;0.97;;
48076;SDS011;33854;57.708;12.008;2022-12-29T05:10:30;4.97;;;1.90;;
48076;SDS011;33854;57.708;12.008;2022-12-29T05:12:55;3.20;;;1.30;;
48076;SDS011;33854;57.708;12.008;2022-12-29T05:15:20;4.67;;;2.13;;
48076;SDS011;33854;57.708;12.008;2022-12-29T05:17:46;11.23;;;2.93;;
48076;SDS011;33854;57.708;12.008;2022-12-29T05:20:12;5.73;;;2.90;;
48076;SDS011;33854;57.708;12.008;2022-12-29T05:22:37;2.63;;;1.73;;
48076;SDS011;33854;57.708;12.008;2022-12-29T05:25:03;6.00;;;2.87;;
48076;SDS011;33854;57.708;12.008;2022-12-29T05:27:28;10.50;;;4.60;;
48076;SDS011;33854;57.708;12.008;2022-12-29T05:29:54;12.20;;;3.03;;
48076;SDS011;33854;57.708;12.008;2022-12-29T05:32:19;7.73;;;3.57;;
48076;SDS011;33854;57.708;12.008;2022-12-29T05:34:45;4.17;;;3.20;;
48076;SDS011;33854;57.708;12.008;2022-12-29T05:37:10;5.33;;;2.20;;
48076;SDS011;33854;57.708;12.008;2022-12-29T05:39:36;5.77;;;2.90;;
48076;SDS011;33854;57.708;12.008;2022-12-29T05:42:01;3.53;;;2.30;;
48076;SDS011;33854;57.708;12.008;2022-12-29T05:44:26;6.43;;;2.17;;
48076;SDS011;33854;57.708;12.008;2022-12-29T05:46:52;4.30;;;2.00;;
48076;SDS011;33854;57.708;12.008;2022-12-29T05:49:18;3.70;;;2.10;;
48076;SDS011;33854;57.708;12.008;2022-12-29T05:51:43;9.73;;;2.83;;
48076;SDS011;33854;57.708;12.008;2022-12-29T05:54:09;6.77;;;2.80;;
48076;SDS011;33854;57.708;12.008;2022-12-29T05:56:34;9.13;;;3.97;;
48076;SDS011;33854;57.708;12.008;2022-12-29T05:59:00;3.37;;;2.40;;
48076;SDS011;33854;57.708;12.008;2022-12-29T06:01:25;9.10;;;3.70;;
48076;SDS011;33854;57.708;12.008;2022-12-29T06:03:50;6.77;;;3.77;;
48076;SDS011;33854;57.708;12.008;2022-12-29T06:06:16;7.33;;;3.47;;
48076;SDS011;33854;57.708;12.008;2022-12-29T06:08:41;8.90;;;3.20;;
48076;SDS011;33854;57.708;12.008;2022-12-29T06:11:07;9.47;;;5.43;;
48076;SDS011;33854;57.708;12.008;2022-12-29T06:13:32;10.33;;;7.10;;
48076;SDS011;33854;57.708;12.008;2022-12-29T06:15:58;11.93;;;6.70;;
48076;SDS011;33854;57.708;12.008;2022-12-29T06:18:23;15.87;;;8.30;;
48076;SDS011;33854;57.708;12.008;2022-12-29T06:20:48;11.67;;;4.67;;
48076;SDS011;33854;57.708;12.008;2022-12-29T06:23:14;13.97;;;5.93;;
48076;SDS011;33854;57.708;12.008;2022-12-29T06:25:39;10.10;;;5.23;;
48076;SDS011;33854;57.708;12.008;2022-12-29T06:28:05;19.10;;;8.37;;
48076;SDS011;33854;57.708;12.008;2022-12-29T06:30:31;19.90;;;8.30;;
48076;SDS011;33854;57.708;12.008;2022-12-29T06:32:57;14.27;;;7.13;;
48076;SDS011;33854;57.708;12.008;2022-12-29T06:35:23;21.63;;;8.48;;
48076;SDS011;33854;57.708;12.008;2022-12-29T06:37:49;18.30;;;7.83;;
48076;SDS011;33854;57.708;12.008;2022-12-29T06:40:14;20.17;;;9.67;;
48076;SDS011;33854;57.708;12.008;2022-12-29T06:42:40;8.43;;;4.53;;
48076;SDS011;33854;57.708;12.008;2022-12-29T06:45:06;23.40;;;7.97;;
48076;SDS011;33854;57.708;12.008;2022-12-29T06:47:32;16.67;;;6.82;;
48076;SDS011;33854;57.708;12.008;2022-12-29T06:49:58;12.52;;;6.38;;
48076;SDS011;33854;57.708;12.008;2022-12-29T06:52:24;9.17;;;5.23;;
48076;SDS011;33854;57.708;12.008;2022-12-29T06:54:49;9.63;;;4.90;;
48076;SDS011;33854;57.708;12.008;2022-12-29T06:57:15;10.43;;;4.90;;
48076;SDS011;33854;57.708;12.008;2022-12-29T06:59:40;4.73;;;3.13;;
48076;SDS011;33854;57.708;12.008;2022-12-29T07:02:06;3.90;;;2.70;;
48076;SDS011;33854;57.708;12.008;2022-12-29T07:04:31;5.33;;;2.97;;
48076;SDS011;33854;57.708;12.008;2022-12-29T07:06:57;2.60;;;2.27;;
48076;SDS011;33854;57.708;12.008;2022-12-29T07:09:22;4.33;;;2.00;;
48076;SDS011;33854;57.708;12.008;2022-12-29T07:11:48;5.50;;;2.70;;
48076;SDS011;33854;57.708;12.008;2022-12-29T07:14:13;1.63;;;0.50;;
48076;SDS011;33854;57.708;12.008;2022-12-29T07:16:38;1.40;;;1.30;;
48076;SDS011;33854;57.708;12.008;2022-12-29T07:19:04;2.57;;;1.50;;
48076;SDS011;33854;57.708;12.008;2022-12-29T07:21:30;1.53;;;1.43;;
48076;SDS011;33854;57.708;12.008;2022-12-29T07:23:55;4.13;;;2.03;;
48076;SDS011;33854;57.708;12.008;2022-12-29T07:26:21;5.47;;;3.40;;
48076;SDS011;33854;57.708;12.008;2022-12-29T07:28:47;3.95;;;2.35;;
48076;SDS011;33854;57.708;12.008;2022-12-29T07:31:20;2.50;;;1.70;;
48076;SDS011;33854;57.708;12.008;2022-12-29T07:33:46;8.50;;;2.92;;
48076;SDS011;33854;57.708;12.008;2022-12-29T07:36:13;8.93;;;4.50;;
48076;SDS011;33854;57.708;12.008;2022-12-29T07:41:05;4.95;;;2.72;;
48076;SDS011;33854;57.708;12.008;2022-12-29T07:43:30;3.07;;;2.23;;
48076;SDS011;33854;57.708;12.008;2022-12-29T07:45:56;7.93;;;4.47;;
48076;SDS011;33854;57.708;12.008;2022-12-29T07:48:21;3.50;;;2.10;;
48076;SDS011;33854;57.708;12.008;2022-12-29T07:50:47;2.90;;;2.60;;
48076;SDS011;33854;57.708;12.008;2022-12-29T07:53:13;3.10;;;2.50;;
48076;SDS011;33854;57.708;12.008;2022-12-29T07:55:38;3.83;;;2.72;;
48076;SDS011;33854;57.708;12.008;2022-12-29T07:58:04;9.10;;;4.03;;
48076;SDS011;33854;57.708;12.008;2022-12-29T08:00:30;4.70;;;3.33;;
48076;SDS011;33854;57.708;12.008;2022-12-29T08:02:55;5.80;;;1.93;;
48076;SDS011;33854;57.708;12.008;2022-12-29T08:05:20;16.00;;;4.77;;
48076;SDS011;33854;57.708;12.008;2022-12-29T08:07:46;4.93;;;2.03;;
48076;SDS011;33854;57.708;12.008;2022-12-29T08:10:12;8.02;;;3.08;;
48076;SDS011;33854;57.708;12.008;2022-12-29T08:12:39;14.38;;;4.45;;
48076;SDS011;33854;57.708;12.008;2022-12-29T08:15:05;11.48;;;4.25;;
48076;SDS011;33854;57.708;12.008;2022-12-29T08:17:31;6.72;;;3.25;;
48076;SDS011;33854;57.708;12.008;2022-12-29T08:19:57;10.97;;;4.13;;
48076;SDS011;33854;57.708;12.008;2022-12-29T08:22:23;14.83;;;4.93;;
48076;SDS011;33854;57.708;12.008;2022-12-29T08:24:48;14.60;;;5.03;;
48076;SDS011;33854;57.708;12.008;2022-12-29T08:27:14;3.43;;;1.63;;
48076;SDS011;33854;57.708;12.008;2022-12-29T08:29:40;13.57;;;4.80;;
48076;SDS011;33854;57.708;12.008;2022-12-29T08:32:05;10.33;;;3.23;;
48076;SDS011;33854;57.708;12.008;2022-12-29T08:34:31;7.50;;;3.17;;
48076;SDS011;33854;57.708;12.008;2022-12-29T08:36:57;10.32;;;4.20;;
48076;SDS011;33854;57.708;12.008;2022-12-29T08:39:22;7.10;;;3.20;;
48076;SDS011;33854;57.708;12.008;2022-12-29T08:41:48;4.70;;;2.03;;
48076;SDS011;33854;57.708;12.008;2022-12-29T08:44:13;7.57;;;3.07;;
48076;SDS011;33854;57.708;12.008;2022-12-29T08:46:38;16.30;;;4.43;;
48076;SDS011;33854;57.708;12.008;2022-12-29T08:49:04;6.73;;;2.87;;
48076;SDS011;33854;57.708;12.008;2022-12-29T08:51:30;15.60;;;3.97;;
48076;SDS011;33854;57.708;12.008;2022-12-29T08:53:55;7.40;;;3.13;;
48076;SDS011;33854;57.708;12.008;2022-12-29T08:56:21;15.40;;;3.67;;
48076;SDS011;33854;57.708;12.008;2022-12-29T08:58:48;7.10;;;2.55;;
48076;SDS011;33854;57.708;12.008;2022-12-29T09:01:14;8.43;;;2.40;;
48076;SDS011;33854;57.708;12.008;2022-12-29T09:03:40;8.20;;;2.03;;
48076;SDS011;33854;57.708;12.008;2022-12-29T09:06:05;11.40;;;2.90;;
48076;SDS011;33854;57.708;12.008;2022-12-29T09:08:31;15.53;;;2.77;;
48076;SDS011;33854;57.708;12.008;2022-12-29T09:11:05;13.00;;;3.67;;
48076;SDS011;33854;57.708;12.008;2022-12-29T09:13:33;14.70;;;2.85;;
48076;SDS011;33854;57.708;12.008;2022-12-29T09:15:59;8.40;;;2.47;;
48076;SDS011;33854;57.708;12.008;2022-12-29T09:18:25;9.95;;;2.72;;
48076;SDS011;33854;57.708;12.008;2022-12-29T09:20:55;11.23;;;3.33;;
48076;SDS011;33854;57.708;12.008;2022-12-29T09:23:24;7.03;;;2.33;;
48076;SDS011;33854;57.708;12.008;2022-12-29T09:25:50;11.33;;;3.80;;
48076;SDS011;33854;57.708;12.008;2022-12-29T09:28:15;17.93;;;4.00;;
48076;SDS011;33854;57.708;12.008;2022-12-29T09:30:41;20.23;;;5.50;;
48076;SDS011;33854;57.708;12.008;2022-12-29T09:33:06;10.00;;;5.20;;
48076;SDS011;33854;57.708;12.008;2022-12-29T09:35:32;14.80;;;5.53;;
48076;SDS011;33854;57.708;12.008;2022-12-29T09:37:57;16.90;;;6.77;;
48076;SDS011;33854;57.708;12.008;2022-12-29T09:40:27;19.20;;;7.10;;
48076;SDS011;33854;57.708;12.008;2022-12-29T09:43:00;20.52;;;9.23;;
48076;SDS011;33854;57.708;12.008;2022-12-29T09:46:03;21.02;;;10.15;;
48076;SDS011;33854;57.708;12.008;2022-12-29T09:48:34;8.27;;;6.30;;
48076;SDS011;33854;57.708;12.008;2022-12-29T09:51:10;8.35;;;6.05;;
48076;SDS011;33854;57.708;12.008;2022-12-29T09:53:41;8.63;;;5.30;;
48076;SDS011;33854;57.708;12.008;2022-12-29T09:56:12;18.17;;;8.60;;
48076;SDS011;33854;57.708;12.008;2022-12-29T09:58:42;5.85;;;2.20;;
48076;SDS011;33854;57.708;12.008;2022-12-29T10:01:21;0.00;;;0.00;;
48076;SDS011;33854;57.708;12.008;2022-12-29T10:03:54;0.00;;;0.00;;
48076;SDS011;33854;57.708;12.008;2022-12-29T10:25:43;2.55;;;0.80;;
48076;SDS011;33854;57.708;12.008;2022-12-29T10:28:19;0.00;;;0.00;;
48076;SDS011;33854;57.708;12.008;2022-12-29T10:30:47;0.00;;;0.00;;
48076;SDS011;33854;57.708;12.008;2022-12-29T10:33:18;0.00;;;0.00;;
48076;SDS011;33854;57.708;12.008;2022-12-29T10:35:48;0.00;;;0.00;;
48076;SDS011;33854;57.708;12.008;2022-12-29T10:38:58;0.03;;;0.03;;
48076;SDS011;33854;57.708;12.008;2022-12-29T10:41:13;2.53;;;1.00;;
48076;SDS011;33854;57.708;12.008;2022-12-29T10:43:46;0.00;;;0.00;;
48076;SDS011;33854;57.708;12.008;2022-12-29T10:46:18;0.00;;;0.00;;
48076;SDS011;33854;57.708;12.008;2022-12-29T10:48:48;0.10;;;0.10;;
48076;SDS011;33854;57.708;12.008;2022-12-29T10:54:09;11.27;;;3.15;;
48076;SDS011;33854;57.708;12.008;2022-12-29T10:56:43;7.53;;;2.50;;
48076;SDS011;33854;57.708;12.008;2022-12-29T10:59:16;17.92;;;4.03;;
48076;SDS011;33854;57.708;12.008;2022-12-29T11:01:53;16.80;;;4.85;;
48076;SDS011;33854;57.708;12.008;2022-12-29T11:04:25;13.05;;;2.65;;
48076;SDS011;33854;57.708;12.008;2022-12-29T11:07:00;10.32;;;2.85;;
48076;SDS011;33854;57.708;12.008;2022-12-29T11:09:30;14.40;;;2.97;;
48076;SDS011;33854;57.708;12.008;2022-12-29T11:11:58;8.05;;;2.30;;
48076;SDS011;33854;57.708;12.008;2022-12-29T11:14:28;16.43;;;3.47;;
48076;SDS011;33854;57.708;12.008;2022-12-29T11:16:59;7.93;;;1.65;;
48076;SDS011;33854;57.708;12.008;2022-12-29T11:19:27;7.50;;;1.65;;
48076;SDS011;33854;57.708;12.008;2022-12-29T11:21:56;12.90;;;3.28;;
48076;SDS011;33854;57.708;12.008;2022-12-29T11:24:43;18.90;;;1.90;;
48076;SDS011;33854;57.708;12.008;2022-12-29T11:27:17;24.63;;;2.90;;
48076;SDS011;33854;57.708;12.008;2022-12-29T11:29:43;14.52;;;2.60;;
48076;SDS011;33854;57.708;12.008;2022-12-29T11:32:16;16.58;;;2.67;;
48076;SDS011;33854;57.708;12.008;2022-12-29T11:34:42;15.23;;;2.28;;
48076;SDS011;33854;57.708;12.008;2022-12-29T11:37:12;13.03;;;2.53;;
48076;SDS011;33854;57.708;12.008;2022-12-29T11:40:02;12.48;;;1.83;;
48076;SDS011;33854;57.708;12.008;2022-12-29T11:45:21;13.10;;;2.53;;
48076;SDS011;33854;57.708;12.008;2022-12-29T11:47:49;13.38;;;1.73;;
48076;SDS011;33854;57.708;12.008;2022-12-29T11:50:28;15.77;;;2.25;;
48076;SDS011;33854;57.708;12.008;2022-12-29T11:55:36;17.85;;;3.20;;
48076;SDS011;33854;57.708;12.008;2022-12-29T11:58:02;7.17;;;1.80;;
48076;SDS011;33854;57.708;12.008;2022-12-29T12:00:30;14.25;;;2.80;;
48076;SDS011;33854;57.708;12.008;2022-12-29T12:05:30;13.52;;;2.60;;
48076;SDS011;33854;57.708;12.008;2022-12-29T12:08:00;12.98;;;2.13;;
48076;SDS011;33854;57.708;12.008;2022-12-29T12:10:30;26.30;;;3.33;;
48076;SDS011;33854;57.708;12.008;2022-12-29T12:15:37;13.63;;;2.25;;
48076;SDS011;33854;57.708;12.008;2022-12-29T12:18:11;17.55;;;2.47;;
48076;SDS011;33854;57.708;12.008;2022-12-29T12:26:35;12.88;;;2.67;;
48076;SDS011;33854;57.708;12.008;2022-12-29T12:34:30;21.70;;;3.03;;
48076;SDS011;33854;57.708;12.008;2022-12-29T13:12:01;15.70;;;2.22;;
48076;SDS011;33854;57.708;12.008;2022-12-29T13:17:34;12.60;;;1.73;;
48076;SDS011;33854;57.708;12.008;2022-12-29T13:22:47;31.73;;;3.08;;
48076;SDS011;33854;57.708;12.008;2022-12-29T13:34:05;16.23;;;3.83;;
48076;SDS011;33854;57.708;12.008;2022-12-29T13:38:44;20.85;;;2.88;;
48076;SDS011;33854;57.708;12.008;2022-12-29T13:41:29;14.68;;;2.38;;
48076;SDS011;33854;57.708;12.008;2022-12-29T13:43:58;11.82;;;2.63;;
48076;SDS011;33854;57.708;12.008;2022-12-29T13:46:28;13.65;;;2.22;;
48076;SDS011;33854;57.708;12.008;2022-12-29T13:48:59;15.50;;;2.45;;
48076;SDS011;33854;57.708;12.008;2022-12-29T13:51:31;12.30;;;2.33;;
48076;SDS011;33854;57.708;12.008;2022-12-29T13:56:40;15.82;;;3.42;;
48076;SDS011;33854;57.708;12.008;2022-12-29T13:59:59;19.63;;;2.83;;
48076;SDS011;33854;57.708;12.008;2022-12-29T14:05:03;10.45;;;2.10;;
48076;SDS011;33854;57.708;12.008;2022-12-29T14:07:36;10.90;;;2.67;;
48076;SDS011;33854;57.708;12.008;2022-12-29T14:10:03;21.35;;;3.38;;
48076;SDS011;33854;57.708;12.008;2022-12-29T14:15:31;19.90;;;3.08;;
48076;SDS011;33854;57.708;12.008;2022-12-29T14:23:42;18.08;;;2.35;;
48076;SDS011;33854;57.708;12.008;2022-12-29T14:28:56;21.13;;;3.05;;
48076;SDS011;33854;57.708;12.008;2022-12-29T14:31:42;34.40;;;4.28;;
48076;SDS011;33854;57.708;12.008;2022-12-29T14:38:59;21.23;;;3.73;;
48076;SDS011;33854;57.708;12.008;2022-12-29T14:41:32;25.97;;;3.57;;
48076;SDS011;33854;57.708;12.008;2022-12-29T14:46:45;22.45;;;3.10;;
48076;SDS011;33854;57.708;12.008;2022-12-29T14:49:33;20.58;;;2.88;;
48076;SDS011;33854;57.708;12.008;2022-12-29T14:52:19;18.02;;;2.72;;
48076;SDS011;33854;57.708;12.008;2022-12-29T14:54:49;23.90;;;3.47;;
48076;SDS011;33854;57.708;12.008;2022-12-29T14:59:56;21.77;;;3.15;;
48076;SDS011;33854;57.708;12.008;2022-12-29T15:02:32;9.95;;;1.70;;
48076;SDS011;33854;57.708;12.008;2022-12-29T15:05:03;20.25;;;2.72;;
48076;SDS011;33854;57.708;12.008;2022-12-29T15:07:31;19.10;;;2.40;;
48076;SDS011;33854;57.708;12.008;2022-12-29T15:10:03;17.45;;;2.38;;
48076;SDS011;33854;57.708;12.008;2022-12-29T15:15:13;24.40;;;3.72;;
48076;SDS011;33854;57.708;12.008;2022-12-29T15:17:41;14.77;;;1.88;;
48076;SDS011;33854;57.708;12.008;2022-12-29T15:20:14;11.30;;;1.77;;
48076;SDS011;33854;57.708;12.008;2022-12-29T15:22:57;8.43;;;1.73;;
48076;SDS011;33854;57.708;12.008;2022-12-29T15:25:27;14.95;;;1.92;;
48076;SDS011;33854;57.708;12.008;2022-12-29T15:27:55;14.13;;;2.00;;
48076;SDS011;33854;57.708;12.008;2022-12-29T15:30:24;18.55;;;2.25;;
48076;SDS011;33854;57.708;12.008;2022-12-29T15:32:50;14.27;;;2.20;;
48076;SDS011;33854;57.708;12.008;2022-12-29T15:37:48;20.30;;;2.08;;
48076;SDS011;33854;57.708;12.008;2022-12-29T15:40:27;11.27;;;1.50;;
48076;SDS011;33854;57.708;12.008;2022-12-29T15:45:19;11.27;;;1.80;;
48076;SDS011;33854;57.708;12.008;2022-12-29T15:47:45;17.07;;;1.30;;
48076;SDS011;33854;57.708;12.008;2022-12-29T15:52:45;6.47;;;1.58;;
48076;SDS011;33854;57.708;12.008;2022-12-29T15:55:23;12.67;;;1.60;;
48076;SDS011;33854;57.708;12.008;2022-12-29T15:57:57;12.43;;;1.52;;
48076;SDS011;33854;57.708;12.008;2022-12-29T16:00:28;9.43;;;1.50;;
48076;SDS011;33854;57.708;12.008;2022-12-29T16:02:54;17.77;;;1.63;;
48076;SDS011;33854;57.708;12.008;2022-12-29T16:05:22;9.02;;;1.45;;
48076;SDS011;33854;57.708;12.008;2022-12-29T16:07:55;9.35;;;2.70;;
48076;SDS011;33854;57.708;12.008;2022-12-29T16:13:04;12.20;;;1.85;;
48076;SDS011;33854;57.708;12.008;2022-12-29T16:15:55;16.70;;;2.95;;
48076;SDS011;33854;57.708;12.008;2022-12-29T16:18:26;10.27;;;2.55;;
48076;SDS011;33854;57.708;12.008;2022-12-29T16:20:59;12.93;;;2.85;;
48076;SDS011;33854;57.708;12.008;2022-12-29T16:23:25;6.70;;;1.37;;
48076;SDS011;33854;57.708;12.008;2022-12-29T16:25:52;12.27;;;1.88;;
48076;SDS011;33854;57.708;12.008;2022-12-29T16:28:21;19.23;;;2.72;;
48076;SDS011;33854;57.708;12.008;2022-12-29T16:31:03;15.82;;;2.40;;
48076;SDS011;33854;57.708;12.008;2022-12-29T16:33:37;14.68;;;2.85;;
48076;SDS011;33854;57.708;12.008;2022-12-29T16:36:26;15.70;;;2.30;;
48076;SDS011;33854;57.708;12.008;2022-12-29T16:39:07;26.77;;;2.90;;
48076;SDS011;33854;57.708;12.008;2022-12-29T16:41:36;20.00;;;2.05;;
48076;SDS011;33854;57.708;12.008;2022-12-29T16:44:11;7.37;;;1.70;;
48076;SDS011;33854;57.708;12.008;2022-12-29T16:46:57;12.53;;;2.40;;
48076;SDS011;33854;57.708;12.008;2022-12-29T16:49:35;11.75;;;2.13;;
48076;SDS011;33854;57.708;12.008;2022-12-29T16:52:13;20.38;;;2.42;;
48076;SDS011;33854;57.708;12.008;2022-12-29T16:54:54;13.20;;;2.25;;
48076;SDS011;33854;57.708;12.008;2022-12-29T16:57:23;15.57;;;2.33;;
48076;SDS011;33854;57.708;12.008;2022-12-29T16:59:51;17.48;;;3.38;;
48076;SDS011;33854;57.708;12.008;2022-12-29T17:02:21;8.68;;;1.80;;
48076;SDS011;33854;57.708;12.008;2022-12-29T17:04:49;23.48;;;3.03;;
48076;SDS011;33854;57.708;12.008;2022-12-29T17:07:16;12.27;;;1.13;;
48076;SDS011;33854;57.708;12.008;2022-12-29T17:09:43;10.60;;;2.40;;
48076;SDS011;33854;57.708;12.008;2022-12-29T17:12:09;19.77;;;2.40;;
48076;SDS011;33854;57.708;12.008;2022-12-29T17:19:55;16.50;;;2.60;;
48076;SDS011;33854;57.708;12.008;2022-12-29T17:22:25;7.80;;;1.48;;
48076;SDS011;33854;57.708;12.008;2022-12-29T17:24:54;7.97;;;1.58;;
48076;SDS011;33854;57.708;12.008;2022-12-29T17:27:41;10.50;;;2.20;;
48076;SDS011;33854;57.708;12.008;2022-12-29T17:30:13;12.80;;;2.40;;
48076;SDS011;33854;57.708;12.008;2022-12-29T17:32:40;17.00;;;2.92;;
48076;SDS011;33854;57.708;12.008;2022-12-29T17:35:15;15.63;;;2.35;;
48076;SDS011;33854;57.708;12.008;2022-12-29T17:37:41;13.98;;;3.35;;
48076;SDS011;33854;57.708;12.008;2022-12-29T17:40:09;11.13;;;2.47;;